Terminal Aerodrome Forecast
Issued by NWS Newport/Morehead City, NC

Home | Current Version | Previous Version | Text Only | Print | Product List | Glossary Off
Versions: 1 2 3 4 5 6 7 8 9 10 11 12 13 14 15 16 17 18 19 20 21 22

000
FTUS42 KMHX 231145
TAFEWN
TAF
KEWN 231145Z 2312/2412 04009KT P6SM VCSH OVC006
     FM231600 07009KT P6SM VCSH BKN020
     FM240000 05007KT P6SM VCSH OVC007
     FM240600 06005KT 5SM -SHRA OVC010=

USA.gov is the U.S. government's official web portal to all federal, state and local government web resources and services.